createdAt,value
2017-07-11T00:00:24.668Z,0
2017-07-11T00:01:05.207Z,0
2017-07-11T00:01:45.690Z,0
2017-07-11T00:02:26.177Z,0
2017-07-11T00:03:06.649Z,0
2017-07-11T00:03:47.158Z,0
2017-07-11T00:04:27.695Z,0
2017-07-11T00:05:08.168Z,0
2017-07-11T00:05:48.659Z,0
2017-07-11T00:06:29.156Z,0
2017-07-11T00:07:09.688Z,0
2017-07-11T00:07:50.196Z,0
2017-07-11T00:08:30.737Z,0
2017-07-11T00:09:11.197Z,0
2017-07-11T00:09:51.718Z,0
2017-07-11T00:10:32.193Z,0
2017-07-11T00:11:12.693Z,0
2017-07-11T00:11:53.209Z,0
2017-07-11T00:12:33.724Z,0
2017-07-11T00:13:14.200Z,0
2017-07-11T00:13:54.714Z,0
2017-07-11T00:14:35.198Z,0
2017-07-11T00:15:15.698Z,0
2017-07-11T00:15:56.152Z,0
2017-07-11T00:16:36.628Z,0
2017-07-11T00:17:17.159Z,0
2017-07-11T00:17:57.673Z,0
2017-07-11T00:18:38.210Z,0
2017-07-11T00:19:18.687Z,0
2017-07-11T00:19:59.182Z,0
2017-07-11T00:20:40.588Z,0
2017-07-11T00:21:21.119Z,0
2017-07-11T00:22:01.610Z,0
2017-07-11T00:22:42.089Z,0
2017-07-11T00:23:22.612Z,0
2017-07-11T00:24:03.080Z,0
2017-07-11T00:24:43.605Z,0
2017-07-11T00:25:27.605Z,0
2017-07-11T00:26:10.742Z,0
2017-07-11T00:26:51.222Z,0
2017-07-11T00:27:31.752Z,0
2017-07-11T00:28:12.232Z,0
2017-07-11T00:28:52.768Z,0
2017-07-11T00:29:33.212Z,0
2017-07-11T00:30:13.726Z,0
2017-07-11T00:30:54.276Z,0
2017-07-11T00:31:34.742Z,0
2017-07-11T00:32:15.294Z,0
2017-07-11T00:32:55.764Z,0
2017-07-11T00:33:36.264Z,0
2017-07-11T00:34:16.750Z,0
2017-07-11T00:34:57.222Z,0
2017-07-11T00:35:37.732Z,0
2017-07-11T00:36:18.183Z,0
2017-07-11T00:36:58.676Z,0
2017-07-11T00:37:39.320Z,0
2017-07-11T00:38:19.851Z,0
2017-07-11T00:39:00.329Z,0
2017-07-11T00:39:40.850Z,0
2017-07-11T00:40:21.322Z,0
2017-07-11T00:41:01.850Z,0
2017-07-11T00:41:42.299Z,0
2017-07-11T00:42:22.837Z,0
2017-07-11T00:43:03.284Z,0
2017-07-11T00:43:43.757Z,0
2017-07-11T00:44:24.303Z,0
2017-07-11T00:45:04.771Z,0
2017-07-11T00:45:45.309Z,0
2017-07-11T00:46:25.839Z,0
2017-07-11T00:47:06.368Z,0
2017-07-11T00:47:46.874Z,0
2017-07-11T00:48:27.362Z,0
2017-07-11T00:49:07.828Z,0
2017-07-11T00:49:48.388Z,0
2017-07-11T00:50:28.875Z,0
2017-07-11T00:51:09.358Z,0
2017-07-11T00:51:49.914Z,0
2017-07-11T00:52:30.419Z,0
2017-07-11T00:53:10.874Z,0
2017-07-11T00:53:51.408Z,0
2017-07-11T00:54:31.908Z,0
2017-07-11T00:55:12.418Z,0
2017-07-11T00:55:52.867Z,0
2017-07-11T00:56:33.409Z,0
2017-07-11T00:57:13.911Z,0
2017-07-11T00:57:54.401Z,0
2017-07-11T01:00:33.111Z,0
2017-07-11T01:02:46.368Z,0
2017-07-11T01:03:26.877Z,0
2017-07-11T01:04:07.383Z,0
2017-07-11T01:04:47.893Z,0
2017-07-11T01:05:28.383Z,0
2017-07-11T01:06:08.887Z,0
2017-07-11T01:06:49.424Z,0
2017-07-11T01:07:29.925Z,0
2017-07-11T01:08:10.446Z,0
2017-07-11T01:08:50.963Z,0
2017-07-11T01:09:31.485Z,0
2017-07-11T01:10:11.993Z,0
2017-07-11T01:10:52.527Z,0
2017-07-11T01:11:33.032Z,0
2017-07-11T01:12:13.541Z,0
2017-07-11T01:12:54.072Z,0
2017-07-11T01:13:34.568Z,0
2017-07-11T01:14:15.118Z,0
2017-07-11T01:14:55.605Z,0
2017-07-11T01:15:36.090Z,0
2017-07-11T01:16:16.623Z,0
2017-07-11T01:16:57.118Z,0
2017-07-11T01:17:37.646Z,0
2017-07-11T01:18:18.136Z,0
2017-07-11T01:18:58.635Z,0
2017-07-11T01:19:39.156Z,0
2017-07-11T01:22:12.789Z,0
2017-07-11T01:22:53.329Z,0
2017-07-11T01:23:33.852Z,0
2017-07-11T01:24:14.417Z,0
2017-07-11T01:24:54.981Z,0
2017-07-11T01:25:35.484Z,0
2017-07-11T01:26:15.967Z,0
2017-07-11T01:26:56.475Z,0
2017-07-11T01:27:37.135Z,0
2017-07-11T01:28:17.696Z,0
2017-07-11T01:28:58.163Z,0
2017-07-11T01:29:38.652Z,0
2017-07-11T01:30:19.172Z,0
2017-07-11T01:30:59.670Z,0
2017-07-11T01:31:40.205Z,0
2017-07-11T01:32:20.661Z,0
2017-07-11T01:33:01.187Z,0
2017-07-11T01:33:41.708Z,0
2017-07-11T01:34:22.189Z,0
2017-07-11T01:35:02.721Z,0
2017-07-11T01:35:43.203Z,0
2017-07-11T01:36:23.706Z,0
2017-07-11T01:37:04.215Z,0
2017-07-11T01:37:44.727Z,0
2017-07-11T01:38:25.226Z,0
2017-07-11T01:39:05.746Z,0
2017-07-11T01:39:46.239Z,0
2017-07-11T01:40:26.734Z,0
2017-07-11T01:41:08.557Z,0
2017-07-11T01:41:48.612Z,0
2017-07-11T01:42:29.118Z,0
2017-07-11T01:43:09.610Z,0
2017-07-11T01:43:50.118Z,0
2017-07-11T01:44:30.644Z,0
2017-07-11T01:45:11.147Z,0
2017-07-11T01:45:51.660Z,0
2017-07-11T01:46:32.178Z,0
2017-07-11T01:47:12.706Z,0
2017-07-11T01:47:53.183Z,0
2017-07-11T01:48:33.706Z,0
2017-07-11T01:49:14.225Z,0
2017-07-11T01:49:54.772Z,0
2017-07-11T01:50:35.265Z,0
2017-07-11T01:51:15.754Z,0
2017-07-11T01:51:56.278Z,0
2017-07-11T01:52:36.762Z,0
2017-07-11T01:53:17.305Z,0
2017-07-11T01:53:57.817Z,0
2017-07-11T01:54:38.279Z,0
2017-07-11T01:55:18.812Z,0
2017-07-11T01:55:59.330Z,0
2017-07-11T01:56:39.809Z,0
2017-07-11T01:57:20.326Z,0
2017-07-11T01:58:00.831Z,0
2017-07-11T01:58:41.333Z,0
2017-07-11T01:59:21.793Z,0
2017-07-11T02:00:02.359Z,0
2017-07-11T02:00:42.837Z,0
2017-07-11T02:01:23.437Z,0
2017-07-11T02:02:03.951Z,0
2017-07-11T02:02:44.414Z,0
2017-07-11T02:03:24.927Z,0
2017-07-11T02:04:05.435Z,0
2017-07-11T02:04:45.929Z,0
2017-07-11T02:05:26.436Z,0
2017-07-11T02:06:06.945Z,0
2017-07-11T02:06:47.442Z,0
2017-07-11T02:07:27.960Z,0
2017-07-11T02:08:08.439Z,0
2017-07-11T02:08:48.944Z,0
2017-07-11T02:09:29.434Z,0
2017-07-11T02:10:09.927Z,0
2017-07-11T02:10:50.477Z,0
2017-07-11T02:11:30.961Z,0
2017-07-11T02:12:11.477Z,0
2017-07-11T02:12:51.977Z,0
2017-07-11T02:13:32.501Z,0
2017-07-11T02:14:12.994Z,0
2017-07-11T02:14:53.507Z,0
2017-07-11T02:15:34.008Z,0
2017-07-11T02:16:14.505Z,0
2017-07-11T02:16:54.989Z,0
2017-07-11T02:17:35.514Z,0
2017-07-11T02:18:16.022Z,0
2017-07-11T02:18:56.554Z,0
2017-07-11T02:19:37.049Z,0
2017-07-11T02:20:17.581Z,0
2017-07-11T02:20:58.069Z,0
2017-07-11T02:21:38.608Z,0
2017-07-11T02:22:19.091Z,0
2017-07-11T02:22:59.652Z,0
2017-07-11T02:23:40.158Z,0
2017-07-11T02:24:20.666Z,0
2017-07-11T02:25:01.215Z,0
2017-07-11T02:25:41.705Z,0
2017-07-11T02:26:22.226Z,0
2017-07-11T02:27:02.691Z,0
2017-07-11T02:27:43.216Z,0
2017-07-11T02:28:23.760Z,0
2017-07-11T02:29:04.248Z,0
2017-07-11T02:29:44.766Z,0
2017-07-11T02:30:25.296Z,0
2017-07-11T02:31:05.812Z,0
2017-07-11T02:31:46.322Z,0
2017-07-11T02:32:26.828Z,0
2017-07-11T02:33:07.347Z,0
2017-07-11T02:33:47.868Z,0
2017-07-11T02:34:28.386Z,0
2017-07-11T02:35:08.921Z,0
2017-07-11T02:35:49.415Z,0
2017-07-11T02:36:29.930Z,0
2017-07-11T02:37:10.450Z,0
2017-07-11T02:37:50.978Z,0
2017-07-11T02:38:31.516Z,0
2017-07-11T02:39:12.005Z,0
2017-07-11T02:39:52.526Z,0
2017-07-11T02:40:33.016Z,0
2017-07-11T02:41:13.536Z,0
2017-07-11T02:41:54.030Z,0
2017-07-11T02:42:34.536Z,0
2017-07-11T02:43:15.084Z,0
2017-07-11T02:43:55.574Z,0
2017-07-11T02:44:36.080Z,0
2017-07-11T02:45:16.590Z,0
2017-07-11T02:45:57.093Z,0
2017-07-11T02:46:37.607Z,0
2017-07-11T02:47:18.125Z,0
2017-07-11T02:47:58.649Z,0
2017-07-11T02:48:39.163Z,0
2017-07-11T02:49:19.682Z,0
2017-07-11T02:50:00.215Z,0
2017-07-11T02:50:40.845Z,0
2017-07-11T02:51:21.230Z,0
2017-07-11T02:52:01.775Z,0
2017-07-11T02:52:42.262Z,0
2017-07-11T02:53:22.765Z,0
2017-07-11T02:54:03.293Z,0
2017-07-11T02:54:43.762Z,0
2017-07-11T02:55:24.285Z,0
2017-07-11T02:56:04.831Z,0
2017-07-11T02:56:45.336Z,0
2017-07-11T02:57:25.854Z,0
2017-07-11T02:58:06.396Z,0
2017-07-11T02:58:46.868Z,0
2017-07-11T02:59:27.376Z,0
2017-07-11T03:00:07.868Z,0
2017-07-11T03:00:48.379Z,0
2017-07-11T03:01:28.846Z,0
2017-07-11T03:02:09.361Z,0
2017-07-11T03:02:49.860Z,0
2017-07-11T03:03:30.321Z,0
2017-07-11T03:04:10.842Z,0
2017-07-11T03:04:51.342Z,0
2017-07-11T03:05:31.863Z,0
2017-07-11T03:06:12.367Z,0
2017-07-11T03:06:52.865Z,0
2017-07-11T03:07:33.399Z,0
2017-07-11T03:08:13.909Z,0
2017-07-11T03:08:54.467Z,0
2017-07-11T03:09:34.945Z,0
2017-07-11T03:10:15.462Z,0
2017-07-11T03:10:55.977Z,0
2017-07-11T03:11:36.486Z,0
2017-07-11T03:12:17.011Z,0
2017-07-11T03:12:57.547Z,0
2017-07-11T03:13:38.044Z,0
2017-07-11T03:14:18.521Z,0
2017-07-11T03:14:59.037Z,0
2017-07-11T03:15:39.601Z,0
2017-07-11T03:16:20.214Z,0
2017-07-11T03:17:00.700Z,0
2017-07-11T03:17:41.193Z,0
2017-07-11T03:18:21.743Z,0
2017-07-11T03:19:02.258Z,0
2017-07-11T03:19:42.789Z,0
2017-07-11T03:20:23.352Z,0
2017-07-11T03:21:03.861Z,0
2017-07-11T03:21:44.330Z,0
2017-07-11T03:22:24.840Z,0
2017-07-11T03:23:05.365Z,0
2017-07-11T03:23:45.860Z,0
2017-07-11T03:24:26.380Z,0
2017-07-11T03:25:06.903Z,0
2017-07-11T03:25:47.467Z,0
2017-07-11T03:26:27.961Z,0
2017-07-11T03:27:08.520Z,0
2017-07-11T03:27:49.014Z,0
2017-07-11T03:28:29.480Z,0
2017-07-11T03:29:09.977Z,0
2017-07-11T03:29:50.503Z,0
2017-07-11T03:30:31.013Z,0
2017-07-11T03:31:11.507Z,0
2017-07-11T03:33:30.409Z,0
2017-07-11T03:34:10.930Z,0
2017-07-11T03:34:51.458Z,0
2017-07-11T03:35:31.957Z,0
2017-07-11T03:36:12.481Z,0
2017-07-11T03:36:53.009Z,0
2017-07-11T03:37:33.531Z,0
2017-07-11T03:38:14.047Z,0
2017-07-11T03:38:54.562Z,0
2017-07-11T03:39:35.078Z,0
2017-07-11T03:40:15.585Z,0
2017-07-11T03:40:56.109Z,0
2017-07-11T03:41:36.632Z,0
2017-07-11T03:42:17.141Z,0
2017-07-11T03:42:57.666Z,0
2017-07-11T03:43:38.203Z,0
2017-07-11T03:44:18.697Z,0
2017-07-11T03:44:59.166Z,0
2017-07-11T03:45:39.675Z,0
2017-07-11T03:46:20.187Z,0
2017-07-11T03:47:00.694Z,0
2017-07-11T03:47:41.200Z,0
2017-07-11T03:48:21.700Z,0
2017-07-11T03:49:02.221Z,0
2017-07-11T03:49:42.713Z,0
2017-07-11T03:50:23.282Z,0
2017-07-11T03:51:03.785Z,0
2017-07-11T03:51:44.296Z,0
2017-07-11T03:52:24.805Z,0
2017-07-11T03:53:05.319Z,0
2017-07-11T03:53:45.853Z,0
2017-07-11T03:54:26.339Z,0
2017-07-11T03:55:06.876Z,0
2017-07-11T03:55:47.404Z,0
2017-07-11T03:56:27.904Z,0
2017-07-11T03:57:08.413Z,0
2017-07-11T03:57:48.954Z,0
2017-07-11T03:58:29.458Z,0
2017-07-11T03:59:09.969Z,0
2017-07-11T03:59:50.493Z,0
2017-07-11T04:00:31.002Z,0
2017-07-11T04:01:11.500Z,0
2017-07-11T04:01:52.026Z,0
2017-07-11T04:02:32.518Z,0
2017-07-11T04:03:13.027Z,0
2017-07-11T04:03:53.500Z,0
2017-07-11T04:04:33.986Z,0
2017-07-11T04:05:14.513Z,0
2017-07-11T04:05:55.028Z,0
2017-07-11T04:06:35.516Z,0
2017-07-11T04:07:16.023Z,0
2017-07-11T04:07:56.553Z,0
2017-07-11T04:08:37.066Z,0
2017-07-11T04:09:17.582Z,0
2017-07-11T04:09:58.102Z,0
2017-07-11T04:10:38.594Z,0
2017-07-11T04:11:19.160Z,0
2017-07-11T04:11:59.678Z,0
2017-07-11T04:12:40.204Z,0
2017-07-11T04:13:20.709Z,5
2017-07-11T04:14:01.226Z,5
2017-07-11T04:14:41.750Z,5
2017-07-11T04:15:22.253Z,5
2017-07-11T04:16:02.772Z,5
2017-07-11T04:16:43.296Z,5
2017-07-11T04:17:23.792Z,5
2017-07-11T04:18:04.326Z,5
2017-07-11T04:18:44.836Z,5
2017-07-11T04:19:25.346Z,5
2017-07-11T04:20:05.868Z,5
2017-07-11T04:20:46.386Z,5
2017-07-11T04:21:26.894Z,5
2017-07-11T04:22:07.400Z,5
2017-07-11T04:22:47.916Z,10
2017-07-11T04:23:28.411Z,10
2017-07-11T04:24:08.921Z,10
2017-07-11T04:24:49.447Z,10
2017-07-11T04:25:30.046Z,15
2017-07-11T04:26:10.492Z,15
2017-07-11T04:26:51.040Z,10
2017-07-11T04:27:31.511Z,10
2017-07-11T04:28:12.039Z,10
2017-07-11T04:28:52.554Z,5
2017-07-11T04:29:33.074Z,5
2017-07-11T04:30:13.597Z,0
2017-07-11T04:30:54.095Z,0
2017-07-11T04:31:34.634Z,0
2017-07-11T04:32:15.139Z,0
2017-07-11T04:32:55.670Z,0
2017-07-11T04:33:36.197Z,0
2017-07-11T04:34:16.718Z,0
2017-07-11T04:34:57.245Z,5
2017-07-11T04:35:37.753Z,5
2017-07-11T04:36:18.275Z,5
2017-07-11T04:36:58.785Z,5
2017-07-11T04:37:39.346Z,5
2017-07-11T04:38:19.819Z,5
2017-07-11T04:39:00.336Z,5
2017-07-11T04:39:40.816Z,5
2017-07-11T04:40:21.330Z,5
2017-07-11T04:41:01.838Z,5
2017-07-11T04:41:42.323Z,5
2017-07-11T04:42:22.850Z,5
2017-07-11T04:43:03.351Z,5
2017-07-11T04:43:43.824Z,5
2017-07-11T04:44:24.329Z,5
2017-07-11T04:45:04.824Z,5
2017-07-11T04:45:45.346Z,5
2017-07-11T04:46:25.832Z,5
2017-07-11T04:47:06.362Z,5
2017-07-11T04:47:46.870Z,5
2017-07-11T04:48:27.323Z,5
2017-07-11T04:49:07.809Z,5
2017-07-11T04:49:48.328Z,5
2017-07-11T04:50:28.811Z,5
2017-07-11T04:51:09.368Z,5
2017-07-11T04:51:49.896Z,5
2017-07-11T04:52:30.373Z,5
2017-07-11T04:53:10.949Z,5
2017-07-11T04:53:51.405Z,5
2017-07-11T04:54:31.909Z,10
2017-07-11T04:55:12.414Z,10
2017-07-11T04:55:52.914Z,10
2017-07-11T04:56:33.416Z,10
2017-07-11T04:57:13.913Z,10
2017-07-11T04:57:54.382Z,10
2017-07-11T04:58:34.953Z,10
2017-07-11T04:59:15.382Z,10
2017-07-11T04:59:55.864Z,10
2017-07-11T05:00:36.362Z,10
2017-07-11T05:01:16.886Z,10
2017-07-11T05:01:57.372Z,10
2017-07-11T05:02:37.914Z,10
2017-07-11T05:03:18.400Z,10
2017-07-11T05:03:58.926Z,10
2017-07-11T05:04:39.450Z,10
2017-07-11T05:05:19.951Z,10
2017-07-11T05:06:00.477Z,10
2017-07-11T05:06:40.984Z,15
2017-07-11T05:07:21.562Z,15
2017-07-11T05:08:02.059Z,15
2017-07-11T05:08:42.582Z,15
2017-07-11T05:09:23.107Z,15
2017-07-11T05:10:03.588Z,15
2017-07-11T05:10:44.092Z,15
2017-07-11T05:11:24.660Z,15
2017-07-11T05:12:05.146Z,10
2017-07-11T05:12:45.664Z,10
2017-07-11T05:13:26.186Z,10
2017-07-11T05:14:06.702Z,10
2017-07-11T05:14:47.241Z,10
2017-07-11T05:15:27.720Z,10
2017-07-11T05:16:08.244Z,10
2017-07-11T05:16:48.736Z,10
2017-07-11T05:17:29.230Z,15
2017-07-11T05:18:09.702Z,15
2017-07-11T05:18:50.219Z,15
2017-07-11T05:19:30.730Z,15
2017-07-11T05:20:11.188Z,15
2017-07-11T05:20:51.705Z,15
2017-07-11T05:21:32.264Z,20
2017-07-11T05:22:12.794Z,20
2017-07-11T05:22:53.415Z,25
2017-07-11T05:23:33.940Z,25
2017-07-11T05:24:14.462Z,25
2017-07-11T05:24:54.987Z,30
2017-07-11T05:25:35.496Z,35
2017-07-11T05:26:16.013Z,40
2017-07-11T05:26:56.578Z,40
2017-07-11T05:27:37.097Z,45
2017-07-11T05:28:17.620Z,45
2017-07-11T05:28:58.142Z,50
2017-07-11T05:29:38.675Z,50
2017-07-11T05:30:19.178Z,50
2017-07-11T05:30:59.729Z,55
2017-07-11T05:31:40.235Z,60
2017-07-11T05:32:20.761Z,60
2017-07-11T05:33:01.282Z,65
2017-07-11T05:33:41.831Z,70
2017-07-11T05:34:22.342Z,75
2017-07-11T05:35:02.986Z,80
2017-07-11T05:35:43.479Z,80
2017-07-11T05:36:23.971Z,75
2017-07-11T05:37:04.508Z,75
2017-07-11T05:37:45.026Z,75
2017-07-11T05:38:25.536Z,75
2017-07-11T05:39:06.061Z,75
2017-07-11T05:39:48.368Z,80
2017-07-11T05:40:29.712Z,75
2017-07-11T05:41:10.790Z,60
2017-07-11T05:41:51.311Z,65
2017-07-11T05:42:31.861Z,65
2017-07-11T05:43:12.330Z,65
2017-07-11T05:43:52.873Z,75
2017-07-11T05:44:34.808Z,70
2017-07-11T05:45:15.318Z,70
2017-07-11T05:45:56.419Z,70
2017-07-11T05:46:36.968Z,80
2017-07-11T05:47:18.714Z,70
2017-07-11T05:47:58.649Z,55
2017-07-11T05:48:39.199Z,50
2017-07-11T05:49:19.758Z,45
2017-07-11T05:50:00.219Z,50
2017-07-11T05:50:40.781Z,55
2017-07-11T05:51:21.299Z,65
2017-07-11T05:52:01.822Z,75
2017-07-11T05:52:42.323Z,80
2017-07-11T05:53:22.851Z,75
2017-07-11T05:54:03.345Z,80
2017-07-11T05:54:43.867Z,65
2017-07-11T05:55:24.405Z,65
2017-07-11T05:56:04.882Z,65
2017-07-11T05:56:45.393Z,65
2017-07-11T05:57:25.897Z,70
2017-07-11T05:58:06.386Z,95
2017-07-11T05:58:46.878Z,85
2017-07-11T05:59:27.363Z,105
2017-07-11T06:00:07.893Z,170
2017-07-11T06:00:48.369Z,255
2017-07-11T06:01:28.877Z,170
2017-07-11T06:02:09.416Z,220
2017-07-11T06:02:49.860Z,195
2017-07-11T06:03:30.372Z,165
2017-07-11T06:04:10.877Z,155
2017-07-11T06:04:51.399Z,180
2017-07-11T06:05:31.923Z,170
2017-07-11T06:06:12.432Z,175
2017-07-11T06:06:52.944Z,175
2017-07-11T06:07:33.431Z,180
2017-07-11T06:08:13.975Z,175
2017-07-11T06:08:54.504Z,110
2017-07-11T06:09:35.019Z,105
2017-07-11T06:10:15.529Z,125
2017-07-11T06:10:56.024Z,130
2017-07-11T06:11:36.523Z,135
2017-07-11T06:12:17.052Z,125
2017-07-11T06:12:57.567Z,120
2017-07-11T06:13:38.070Z,125
2017-07-11T06:14:20.414Z,125
2017-07-11T06:15:01.645Z,120
2017-07-11T06:15:42.226Z,125
2017-07-11T06:16:22.670Z,120
2017-07-11T06:17:03.193Z,125
2017-07-11T06:17:43.713Z,125
2017-07-11T06:18:24.232Z,125
2017-07-11T06:19:04.837Z,125
2017-07-11T06:19:45.255Z,120
2017-07-11T06:20:25.774Z,120
2017-07-11T06:21:06.253Z,125
2017-07-11T06:21:46.776Z,125
2017-07-11T06:22:27.261Z,120
2017-07-11T06:23:07.795Z,120
2017-07-11T06:23:48.287Z,120
2017-07-11T06:24:28.792Z,120
2017-07-11T06:25:09.293Z,120
2017-07-11T06:25:49.808Z,125
2017-07-11T06:26:30.332Z,125
2017-07-11T06:27:10.796Z,130
2017-07-11T06:27:51.344Z,115
2017-07-11T06:28:31.844Z,105
2017-07-11T06:29:12.304Z,105
2017-07-11T06:29:52.791Z,75
2017-07-11T06:30:33.334Z,65
2017-07-11T06:31:13.835Z,55
2017-07-11T06:31:54.338Z,45
2017-07-11T06:32:34.812Z,60
2017-07-11T06:33:15.345Z,70
2017-07-11T06:33:55.819Z,75
2017-07-11T06:34:36.349Z,65
2017-07-11T06:35:16.902Z,65
2017-07-11T06:35:57.349Z,55
2017-07-11T06:36:37.816Z,65
2017-07-11T06:37:18.360Z,85
2017-07-11T06:37:58.815Z,80
2017-07-11T06:38:39.339Z,145
2017-07-11T06:39:19.816Z,140
2017-07-11T06:40:00.336Z,140
2017-07-11T06:40:40.875Z,100
2017-07-11T06:41:21.392Z,80
2017-07-11T06:42:01.881Z,80
2017-07-11T06:42:42.422Z,80
2017-07-11T06:43:22.916Z,100
2017-07-11T06:44:03.438Z,75
2017-07-11T06:44:43.985Z,140
2017-07-11T06:45:24.505Z,125
2017-07-11T06:46:05.016Z,70
2017-07-11T06:46:45.499Z,70
2017-07-11T06:47:26.124Z,85
2017-07-11T06:48:06.620Z,60
2017-07-11T06:48:47.164Z,55
2017-07-11T06:49:27.644Z,70
2017-07-11T06:50:08.198Z,80
2017-07-11T06:50:48.691Z,85
2017-07-11T06:51:29.199Z,70
2017-07-11T06:52:09.719Z,60
2017-07-11T06:52:50.258Z,45
2017-07-11T06:53:30.760Z,40
2017-07-11T06:54:11.273Z,40
2017-07-11T06:54:51.826Z,40
2017-07-11T06:55:32.318Z,45
2017-07-11T06:56:12.847Z,55
2017-07-11T06:56:53.353Z,80
2017-07-11T06:57:33.864Z,140
2017-07-11T06:58:14.399Z,95
2017-07-11T06:58:54.952Z,115
2017-07-11T06:59:35.452Z,110
2017-07-11T07:00:15.960Z,65
2017-07-11T07:00:56.484Z,75
2017-07-11T07:01:36.985Z,75
2017-07-11T07:02:17.500Z,80
2017-07-11T07:02:57.991Z,65
2017-07-11T07:03:38.511Z,65
2017-07-11T07:04:19.014Z,70
2017-07-11T07:04:59.557Z,85
2017-07-11T07:05:40.084Z,110
2017-07-11T07:06:20.592Z,105
2017-07-11T07:07:01.163Z,75
2017-07-11T07:07:41.624Z,95
2017-07-11T07:08:22.186Z,110
2017-07-11T07:09:02.728Z,80
2017-07-11T07:09:43.237Z,85
2017-07-11T07:10:23.760Z,135
2017-07-11T07:11:04.257Z,135
2017-07-11T07:11:44.790Z,130
2017-07-11T07:12:25.301Z,140
2017-07-11T07:13:05.815Z,135
2017-07-11T07:13:46.350Z,110
2017-07-11T07:14:26.847Z,105
2017-07-11T07:15:07.419Z,100
2017-07-11T07:15:47.863Z,75
2017-07-11T07:16:28.366Z,65
2017-07-11T07:17:08.893Z,65
2017-07-11T07:17:49.364Z,60
2017-07-11T07:18:29.896Z,65
2017-07-11T07:19:10.391Z,65
2017-07-11T07:19:50.860Z,65
2017-07-11T07:20:31.352Z,105
2017-07-11T07:21:11.849Z,65
2017-07-11T07:21:52.373Z,65
2017-07-11T07:22:32.997Z,65
2017-07-11T07:23:13.576Z,70
2017-07-11T07:23:54.052Z,65
2017-07-11T07:24:34.540Z,70
2017-07-11T07:25:15.060Z,65
2017-07-11T07:25:55.522Z,65
2017-07-11T07:26:36.045Z,60
2017-07-11T07:27:16.555Z,60
2017-07-11T07:27:57.026Z,55
2017-07-11T07:28:37.540Z,55
2017-07-11T07:29:18.084Z,55
2017-07-11T07:29:58.569Z,55
2017-07-11T07:30:39.090Z,55
2017-07-11T07:31:19.677Z,60
2017-07-11T07:32:00.226Z,60
2017-07-11T07:32:40.724Z,60
2017-07-11T07:33:21.256Z,55
2017-07-11T07:34:01.713Z,85
2017-07-11T07:34:42.266Z,115
2017-07-11T07:35:22.730Z,105
2017-07-11T07:36:03.239Z,80
2017-07-11T07:36:43.889Z,110
2017-07-11T07:37:24.440Z,65
2017-07-11T07:38:04.921Z,85
2017-07-11T07:38:45.421Z,105
2017-07-11T07:39:25.973Z,90
2017-07-11T07:40:06.452Z,100
2017-07-11T07:40:46.965Z,60
2017-07-11T07:41:27.449Z,100
2017-07-11T07:42:07.959Z,100
2017-07-11T07:42:48.496Z,100
2017-07-11T07:43:28.965Z,90
2017-07-11T07:44:09.454Z,100
2017-07-11T07:44:50.012Z,100
2017-07-11T07:45:30.496Z,105
2017-07-11T07:46:10.995Z,105
2017-07-11T07:46:51.506Z,90
2017-07-11T07:47:31.973Z,85
2017-07-11T07:48:12.489Z,90
2017-07-11T07:48:53.004Z,95
2017-07-11T07:49:33.508Z,85
2017-07-11T07:50:13.991Z,65
2017-07-11T07:50:54.480Z,110
2017-07-11T07:51:34.996Z,110
2017-07-11T07:52:15.518Z,105
2017-07-11T07:52:56.025Z,105
2017-07-11T07:53:36.526Z,90
2017-07-11T07:54:17.078Z,105
2017-07-11T07:54:57.533Z,105
2017-07-11T07:55:38.053Z,110
2017-07-11T07:56:18.561Z,105
2017-07-11T07:56:59.063Z,110
2017-07-11T07:57:39.571Z,110
2017-07-11T07:58:20.075Z,105
2017-07-11T07:59:00.573Z,105
2017-07-11T07:59:41.265Z,105
2017-07-11T08:00:21.810Z,105
2017-07-11T08:01:02.323Z,80
2017-07-11T08:01:42.793Z,80
2017-07-11T08:02:23.284Z,75
2017-07-11T08:03:03.814Z,80
2017-07-11T08:03:44.319Z,75
2017-07-11T08:04:24.812Z,95
2017-07-11T08:05:05.341Z,75
2017-07-11T08:05:45.839Z,75
2017-07-11T08:06:26.365Z,70
2017-07-11T08:07:06.843Z,65
2017-07-11T08:07:47.395Z,65
2017-07-11T08:08:27.898Z,85
2017-07-11T08:09:08.391Z,95
2017-07-11T08:09:48.867Z,75
2017-07-11T08:10:29.412Z,70
2017-07-11T08:11:09.924Z,65
2017-07-11T08:11:50.427Z,60
2017-07-11T08:12:30.905Z,60
2017-07-11T08:13:11.395Z,55
2017-07-11T08:13:51.914Z,55
2017-07-11T08:14:32.427Z,55
2017-07-11T08:15:12.913Z,55
2017-07-11T08:15:53.387Z,55
2017-07-11T08:16:33.883Z,60
2017-07-11T08:17:14.422Z,60
2017-07-11T08:17:54.927Z,50
2017-07-11T08:18:35.473Z,50
2017-07-11T08:19:15.909Z,45
2017-07-11T08:19:56.467Z,50
2017-07-11T08:20:36.952Z,50
2017-07-11T08:21:17.425Z,55
2017-07-11T08:21:57.932Z,60
2017-07-11T08:22:38.466Z,55
2017-07-11T08:23:18.979Z,60
2017-07-11T08:23:59.464Z,55
2017-07-11T08:24:39.978Z,55
2017-07-11T08:25:20.552Z,60
2017-07-11T08:26:01.043Z,65
2017-07-11T08:26:41.527Z,60
2017-07-11T08:27:22.007Z,65
2017-07-11T08:28:02.517Z,65
2017-07-11T08:28:43.009Z,65
2017-07-11T08:29:23.530Z,70
2017-07-11T08:30:04.055Z,70
2017-07-11T08:30:44.583Z,70
2017-07-11T08:31:25.109Z,65
2017-07-11T08:32:05.624Z,65
2017-07-11T08:32:46.162Z,60
2017-07-11T08:33:26.680Z,55
2017-07-11T08:34:07.195Z,55
2017-07-11T08:34:47.694Z,55
2017-07-11T08:35:28.362Z,50
2017-07-11T08:36:08.864Z,50
2017-07-11T08:36:49.389Z,45
2017-07-11T08:37:29.906Z,40
2017-07-11T08:38:10.420Z,40
2017-07-11T08:38:50.946Z,40
2017-07-11T08:39:31.448Z,45
2017-07-11T08:40:11.940Z,50
2017-07-11T08:40:52.459Z,55
2017-07-11T08:41:32.983Z,60
2017-07-11T08:42:13.524Z,60
2017-07-11T08:42:54.048Z,60
2017-07-11T08:43:34.560Z,60
2017-07-11T08:44:15.054Z,60
2017-07-11T08:44:55.521Z,60
2017-07-11T08:45:36.025Z,60
2017-07-11T08:46:16.574Z,55
2017-07-11T08:46:57.037Z,55
2017-07-11T08:47:37.564Z,50
2017-07-11T08:48:18.153Z,50
2017-07-11T08:48:58.622Z,45
2017-07-11T08:49:39.105Z,45
2017-07-11T08:50:19.607Z,45
2017-07-11T08:51:00.113Z,45
2017-07-11T08:51:40.629Z,55
2017-07-11T08:52:21.133Z,60
2017-07-11T08:53:01.741Z,60
2017-07-11T08:53:42.235Z,60
2017-07-11T08:54:22.733Z,55
2017-07-11T08:55:03.245Z,55
2017-07-11T08:55:43.791Z,50
2017-07-11T08:56:24.311Z,50
2017-07-11T08:57:04.787Z,55
2017-07-11T08:57:45.305Z,55
2017-07-11T08:58:25.807Z,60
2017-07-11T08:59:06.286Z,55
2017-07-11T08:59:46.815Z,50
2017-07-11T09:00:27.343Z,50
2017-07-11T09:01:07.807Z,40
2017-07-11T09:01:48.297Z,40
2017-07-11T09:02:28.780Z,35
2017-07-11T09:03:09.279Z,35
2017-07-11T09:03:49.808Z,40
2017-07-11T09:04:30.307Z,40
2017-07-11T09:05:10.806Z,40
2017-07-11T09:05:51.299Z,40
2017-07-11T09:06:31.822Z,40
2017-07-11T09:07:12.331Z,35
2017-07-11T09:07:52.836Z,40
2017-07-11T09:08:33.341Z,40
2017-07-11T09:09:13.846Z,40
2017-07-11T09:09:54.361Z,35
2017-07-11T09:10:34.851Z,40
2017-07-11T09:11:15.342Z,30
2017-07-11T09:11:55.867Z,30
2017-07-11T09:12:36.358Z,30
2017-07-11T09:13:16.871Z,25
2017-07-11T09:13:57.361Z,25
2017-07-11T09:14:37.835Z,25
2017-07-11T09:15:18.366Z,30
2017-07-11T09:15:58.907Z,30
2017-07-11T09:16:39.414Z,30
2017-07-11T09:17:19.922Z,30
2017-07-11T09:18:00.396Z,30
2017-07-11T09:18:40.857Z,30
2017-07-11T09:19:21.356Z,30
2017-07-11T09:20:01.882Z,35
2017-07-11T09:20:42.460Z,40
2017-07-11T09:21:22.959Z,40
2017-07-11T09:22:03.462Z,45
2017-07-11T09:22:43.948Z,50
2017-07-11T09:23:24.478Z,50
2017-07-11T09:24:05.044Z,55
2017-07-11T09:24:45.533Z,55
2017-07-11T09:25:26.023Z,50
2017-07-11T09:26:06.516Z,45
2017-07-11T09:26:47.017Z,40
2017-07-11T09:27:27.558Z,35
2017-07-11T09:28:08.045Z,30
2017-07-11T09:28:48.581Z,30
2017-07-11T09:29:29.075Z,30
2017-07-11T09:30:09.613Z,30
2017-07-11T09:30:50.119Z,35
2017-07-11T09:31:30.614Z,35
2017-07-11T09:32:11.131Z,40
2017-07-11T09:32:51.612Z,50
2017-07-11T09:33:32.144Z,55
2017-07-11T09:34:12.624Z,60
2017-07-11T09:34:53.144Z,70
2017-07-11T09:35:33.663Z,75
2017-07-11T09:36:14.147Z,80
2017-07-11T09:36:54.701Z,85
2017-07-11T09:37:35.172Z,90
2017-07-11T09:38:15.732Z,90
2017-07-11T09:38:56.236Z,95
2017-07-11T09:39:36.701Z,95
2017-07-11T09:40:17.205Z,95
2017-07-11T09:40:57.683Z,95
2017-07-11T09:41:38.181Z,95
2017-07-11T09:42:18.661Z,90
2017-07-11T09:42:59.148Z,90
2017-07-11T09:43:39.626Z,90
2017-07-11T09:44:20.147Z,90
2017-07-11T09:45:00.653Z,85
2017-07-11T09:45:41.156Z,85
2017-07-11T09:46:21.671Z,80
2017-07-11T09:47:02.135Z,80
2017-07-11T09:47:42.614Z,80
2017-07-11T09:48:23.113Z,80
2017-07-11T09:49:03.604Z,75
2017-07-11T09:49:44.156Z,80
2017-07-11T09:50:24.619Z,80
2017-07-11T09:51:05.152Z,80
2017-07-11T09:51:45.683Z,80
2017-07-11T09:52:26.171Z,75
2017-07-11T09:53:06.658Z,75